Time;durP1;ratioP1;P1;durP2;ratioP2;P2;SDS_P1;SDS_P2;PMS_P1;PMS_P2;Temp;Humidity;BMP_temperature;BMP_pressure;BME280_temperature;BME280_humidity;BME280_pressure;Samples;Min_cycle;Max_cycle;Signal;HPM_P1;HPM_P2
2023/03/06 00:01:09;;;;;;;7.25;3.17;;;;;;;;;;7386778;19;19999;-76
2023/03/06 00:03:34;;;;;;;6.97;3.38;;;;;;;;;;7386793;19;19998;-76
2023/03/06 00:06:00;;;;;;;5.80;3.08;;;;;;;;;;7388746;19;20002;-76
2023/03/06 00:08:27;;;;;;;7.10;3.25;;;;;;;;;;7387936;19;20368;-76
2023/03/06 00:10:54;;;;;;;8.75;3.45;;;;;;;;;;7387005;19;20026;-76
2023/03/06 00:13:20;;;;;;;7.35;3.22;;;;;;;;;;7389644;19;20005;-76
2023/03/06 00:15:46;;;;;;;7.65;3.03;;;;;;;;;;7387885;19;19995;-76
2023/03/06 00:18:12;;;;;;;6.53;3.20;;;;;;;;;;7387284;19;20002;-76
2023/03/06 00:20:40;;;;;;;5.57;2.95;;;;;;;;;;7386484;19;20444;-75
2023/03/06 00:23:07;;;;;;;7.38;2.97;;;;;;;;;;7386160;19;20009;-76
2023/03/06 00:25:35;;;;;;;5.63;2.95;;;;;;;;;;7387303;19;19998;-76
2023/03/06 00:28:01;;;;;;;7.20;2.88;;;;;;;;;;7384865;19;20001;-76
2023/03/06 00:30:26;;;;;;;5.90;3.03;;;;;;;;;;7386164;19;19995;-76
2023/03/06 00:32:52;;;;;;;7.03;3.40;;;;;;;;;;7386529;19;20951;-76
2023/03/06 00:35:17;;;;;;;4.88;2.60;;;;;;;;;;7386142;19;19994;-76
2023/03/06 00:37:43;;;;;;;7.88;3.28;;;;;;;;;;7387586;19;20015;-76
2023/03/06 00:40:11;;;;;;;5.53;2.45;;;;;;;;;;7381514;19;20520;-76
2023/03/06 00:42:37;;;;;;;7.00;2.95;;;;;;;;;;7381483;19;20027;-76
2023/03/06 00:45:02;;;;;;;7.55;3.28;;;;;;;;;;7383722;19;20374;-75
2023/03/06 00:47:28;;;;;;;6.47;2.75;;;;;;;;;;7386095;19;19998;-76
2023/03/06 00:49:53;;;;;;;6.10;3.15;;;;;;;;;;7383696;19;20002;-76
2023/03/06 00:52:18;;;;;;;6.45;2.60;;;;;;;;;;7386871;19;20058;-76
2023/03/06 00:54:44;;;;;;;7.18;3.20;;;;;;;;;;7390312;19;20007;-76
2023/03/06 00:57:09;;;;;;;6.18;2.90;;;;;;;;;;7386692;19;20023;-76
2023/03/06 00:59:35;;;;;;;5.57;2.70;;;;;;;;;;7386652;19;20762;-76
2023/03/06 01:02:01;;;;;;;7.63;2.85;;;;;;;;;;7385347;19;20003;-76
2023/03/06 01:04:26;;;;;;;6.97;2.88;;;;;;;;;;7385386;19;20010;-76
2023/03/06 01:06:51;;;;;;;6.15;3.17;;;;;;;;;;7388680;19;19994;-75
2023/03/06 01:09:17;;;;;;;5.90;3.00;;;;;;;;;;7385175;19;20009;-76
2023/03/06 01:11:42;;;;;;;6.40;2.85;;;;;;;;;;7384622;19;20078;-80
2023/03/06 01:14:07;;;;;;;8.00;3.40;;;;;;;;;;7384894;19;20063;-79
2023/03/06 01:16:33;;;;;;;5.70;2.67;;;;;;;;;;7386318;19;20452;-81
2023/03/06 01:18:58;;;;;;;9.70;3.53;;;;;;;;;;7385595;19;20006;-80
2023/03/06 01:21:23;;;;;;;7.00;3.03;;;;;;;;;;7382596;19;20015;-81
2023/03/06 01:23:49;;;;;;;7.00;3.30;;;;;;;;;;7382867;19;20030;-80
2023/03/06 01:26:14;;;;;;;8.05;3.70;;;;;;;;;;7389027;19;19998;-80
2023/03/06 01:28:40;;;;;;;6.32;2.92;;;;;;;;;;7385426;19;20009;-81
2023/03/06 01:31:06;;;;;;;8.13;3.33;;;;;;;;;;7384084;19;20002;-81
2023/03/06 01:33:32;;;;;;;6.43;3.28;;;;;;;;;;7382584;19;20011;-80
2023/03/06 01:35:57;;;;;;;5.20;3.08;;;;;;;;;;7389804;19;19998;-81
2023/03/06 01:38:22;;;;;;;9.27;3.47;;;;;;;;;;7400496;19;20005;-80
2023/03/06 01:40:48;;;;;;;6.45;3.20;;;;;;;;;;7404559;19;19995;-80
2023/03/06 01:43:31;;;;;;;6.97;3.50;;;;;;;;;;7400468;19;19999;-78
2023/03/06 01:46:23;;;;;;;7.57;3.35;;;;;;;;;;7385722;19;20066;-80
2023/03/06 01:48:53;;;;;;;7.82;3.38;;;;;;;;;;7386173;19;20077;-79
2023/03/06 01:51:19;;;;;;;5.88;3.00;;;;;;;;;;7389970;19;20070;-81
2023/03/06 01:53:45;;;;;;;6.97;3.20;;;;;;;;;;7390296;19;20454;-80
2023/03/06 01:56:12;;;;;;;8.20;3.50;;;;;;;;;;7392503;19;19999;-81
2023/03/06 01:58:42;;;;;;;6.38;3.28;;;;;;;;;;7391384;19;20537;-80
2023/03/06 02:01:09;;;;;;;7.32;3.65;;;;;;;;;;7391097;19;20058;-79
2023/03/06 02:03:34;;;;;;;8.20;3.30;;;;;;;;;;7390938;19;20069;-81
2023/03/06 02:06:00;;;;;;;6.78;3.42;;;;;;;;;;7391803;19;20528;-80
2023/03/06 02:08:26;;;;;;;7.95;3.28;;;;;;;;;;7391783;19;20006;-79
2023/03/06 02:11:14;;;;;;;6.47;3.17;;;;;;;;;;7391765;19;19990;-79
2023/03/06 02:13:41;;;;;;;8.40;3.25;;;;;;;;;;7390612;19;19998;-81
2023/03/06 02:16:08;;;;;;;5.78;3.20;;;;;;;;;;7390974;19;20080;-79
2023/03/06 02:18:35;;;;;;;7.15;3.40;;;;;;;;;;7390584;19;20024;-78
2023/03/06 02:21:07;;;;;;;7.43;3.33;;;;;;;;;;7390486;19;20002;-80
2023/03/06 02:23:49;;;;;;;7.32;3.38;;;;;;;;;;7389106;19;20062;-79
2023/03/06 02:26:15;;;;;;;7.35;3.65;;;;;;;;;;7391690;19;20043;-81
2023/03/06 02:28:41;;;;;;;9.45;3.97;;;;;;;;;;7391398;19;19995;-80
2023/03/06 02:31:08;;;;;;;8.48;3.65;;;;;;;;;;7389721;19;19995;-80
2023/03/06 02:33:33;;;;;;;8.15;3.50;;;;;;;;;;7389736;19;20476;-81
2023/03/06 02:36:04;;;;;;;8.95;3.72;;;;;;;;;;7390976;19;20054;-81
2023/03/06 02:38:35;;;;;;;7.45;3.60;;;;;;;;;;7390614;19;20089;-80
2023/03/06 02:41:03;;;;;;;7.05;3.28;;;;;;;;;;7390043;19;20015;-81
2023/03/06 02:43:32;;;;;;;10.60;4.28;;;;;;;;;;7389803;19;20528;-79
2023/03/06 02:45:58;;;;;;;9.98;4.03;;;;;;;;;;7392487;19;19998;-80
2023/03/06 02:48:23;;;;;;;8.07;4.07;;;;;;;;;;7390614;19;20164;-79
2023/03/06 02:50:48;;;;;;;12.90;3.88;;;;;;;;;;7388535;19;20337;-81
2023/03/06 02:53:16;;;;;;;10.05;3.92;;;;;;;;;;7390524;19;20100;-82
2023/03/06 02:55:42;;;;;;;7.93;3.50;;;;;;;;;;7389419;19;19999;-80
2023/03/06 02:58:07;;;;;;;8.75;3.63;;;;;;;;;;7390382;19;20457;-81
2023/03/06 03:00:33;;;;;;;9.43;4.28;;;;;;;;;;7390241;19;20018;-79
2023/03/06 03:02:59;;;;;;;9.18;4.03;;;;;;;;;;7387490;19;20002;-80
2023/03/06 03:05:24;;;;;;;11.40;4.00;;;;;;;;;;7391483;19;20006;-80
2023/03/06 03:07:50;;;;;;;9.15;4.15;;;;;;;;;;7390586;19;20050;-80
2023/03/06 03:10:15;;;;;;;7.60;3.80;;;;;;;;;;7388995;19;20415;-80
2023/03/06 03:12:41;;;;;;;9.95;4.35;;;;;;;;;;7387541;19;20332;-81
2023/03/06 03:15:07;;;;;;;10.18;4.20;;;;;;;;;;7391355;19;20209;-80
2023/03/06 03:17:38;;;;;;;8.80;3.83;;;;;;;;;;7389723;19;20536;-80
2023/03/06 03:20:06;;;;;;;7.80;3.70;;;;;;;;;;7388053;19;20026;-81
2023/03/06 03:22:32;;;;;;;8.88;3.63;;;;;;;;;;7392314;19;20275;-79
2023/03/06 03:24:57;;;;;;;8.13;3.63;;;;;;;;;;7392632;19;20552;-81
2023/03/06 03:27:22;;;;;;;7.85;3.97;;;;;;;;;;7392365;19;20488;-79
2023/03/06 03:29:48;;;;;;;7.88;4.50;;;;;;;;;;7392059;19;20007;-79
2023/03/06 03:32:13;;;;;;;7.68;4.05;;;;;;;;;;7387518;19;20082;-80
2023/03/06 03:34:39;;;;;;;9.60;4.45;;;;;;;;;;7388942;19;20002;-83
2023/03/06 03:37:04;;;;;;;9.55;4.00;;;;;;;;;;7396606;19;20007;-80
2023/03/06 03:39:30;;;;;;;9.10;4.10;;;;;;;;;;7400754;19;20003;-80
2023/03/06 03:41:55;;;;;;;8.65;3.78;;;;;;;;;;7400051;19;20009;-80
2023/03/06 03:44:20;;;;;;;9.88;4.40;;;;;;;;;;7396663;19;20002;-79
2023/03/06 03:46:46;;;;;;;10.63;4.72;;;;;;;;;;7389311;19;20471;-80
2023/03/06 03:49:11;;;;;;;8.15;4.10;;;;;;;;;;7388781;19;19994;-80
2023/03/06 03:51:37;;;;;;;7.75;4.32;;;;;;;;;;7385644;19;20406;-81
2023/03/06 03:54:04;;;;;;;9.02;3.95;;;;;;;;;;7387463;19;19995;-80
2023/03/06 03:56:30;;;;;;;9.70;3.92;;;;;;;;;;7388902;19;20006;-81
2023/03/06 03:58:55;;;;;;;11.23;5.15;;;;;;;;;;7388542;19;20010;-81
2023/03/06 04:01:20;;;;;;;9.98;4.40;;;;;;;;;;7387680;19;20006;-79
2023/03/06 04:03:46;;;;;;;9.70;4.32;;;;;;;;;;7387433;19;20012;-80
2023/03/06 04:06:11;;;;;;;11.30;4.57;;;;;;;;;;7389008;19;20009;-80
2023/03/06 04:08:36;;;;;;;7.00;3.80;;;;;;;;;;7387906;19;19999;-80
2023/03/06 04:11:02;;;;;;;9.57;4.63;;;;;;;;;;7386161;19;20002;-81
2023/03/06 04:13:28;;;;;;;8.15;4.03;;;;;;;;;;7384340;19;20006;-79
2023/03/06 04:15:54;;;;;;;10.40;4.35;;;;;;;;;;7388533;19;20473;-81
2023/03/06 04:18:19;;;;;;;9.15;4.43;;;;;;;;;;7388115;19;20010;-80
2023/03/06 04:20:45;;;;;;;10.48;4.60;;;;;;;;;;7389169;19;20003;-80
2023/03/06 04:23:11;;;;;;;9.60;4.60;;;;;;;;;;7386665;19;20065;-80
2023/03/06 04:25:37;;;;;;;8.07;4.20;;;;;;;;;;7385400;19;20389;-80
2023/03/06 04:28:03;;;;;;;11.10;4.65;;;;;;;;;;7387968;19;20033;-80
2023/03/06 04:30:29;;;;;;;8.38;4.03;;;;;;;;;;7385676;19;19998;-80
2023/03/06 04:32:54;;;;;;;10.02;4.75;;;;;;;;;;7386387;19;20013;-80
2023/03/06 04:35:20;;;;;;;9.48;4.70;;;;;;;;;;7387331;19;20039;-82
2023/03/06 04:37:45;;;;;;;13.30;4.57;;;;;;;;;;7390079;19;20002;-81
2023/03/06 04:40:20;;;;;;;10.35;5.07;;;;;;;;;;7386866;19;19999;-82
2023/03/06 04:42:45;;;;;;;9.93;4.50;;;;;;;;;;7386250;19;20003;-80
2023/03/06 04:45:11;;;;;;;8.88;4.07;;;;;;;;;;7386995;19;20062;-79
2023/03/06 04:47:36;;;;;;;8.60;4.60;;;;;;;;;;7391821;19;20006;-80
2023/03/06 04:50:02;;;;;;;8.32;4.43;;;;;;;;;;7386015;19;20028;-81
2023/03/06 04:52:28;;;;;;;10.60;4.40;;;;;;;;;;7385822;19;20006;-81
2023/03/06 04:54:53;;;;;;;9.60;4.43;;;;;;;;;;7386368;19;20015;-81
2023/03/06 04:57:18;;;;;;;11.45;4.65;;;;;;;;;;7386993;19;20002;-81
2023/03/06 04:59:44;;;;;;;9.32;4.65;;;;;;;;;;7386474;19;20318;-81
2023/03/06 05:02:09;;;;;;;10.13;5.13;;;;;;;;;;7382882;19;19999;-79
2023/03/06 05:04:34;;;;;;;10.23;4.55;;;;;;;;;;7385355;19;20012;-80
2023/03/06 05:07:00;;;;;;;8.75;4.70;;;;;;;;;;7388078;19;20017;-80
2023/03/06 05:09:25;;;;;;;10.80;4.97;;;;;;;;;;7388670;19;20402;-80
2023/03/06 05:11:50;;;;;;;8.90;4.50;;;;;;;;;;7386716;19;20465;-79
2023/03/06 05:14:16;;;;;;;8.85;4.75;;;;;;;;;;7387016;19;20018;-80
2023/03/06 05:16:41;;;;;;;9.82;5.30;;;;;;;;;;7390740;19;20440;-82
2023/03/06 05:19:06;;;;;;;10.40;4.45;;;;;;;;;;7388426;19;20066;-79
2023/03/06 05:21:32;;;;;;;9.35;4.80;;;;;;;;;;7319758;19;20040;-80
2023/03/06 05:23:57;;;;;;;10.52;4.63;;;;;;;;;;7385447;19;20007;-81
2023/03/06 05:26:23;;;;;;;12.10;5.10;;;;;;;;;;7393754;19;20088;-80
2023/03/06 05:28:48;;;;;;;9.20;4.60;;;;;;;;;;7392691;19;20483;-82
2023/03/06 05:31:14;;;;;;;9.45;4.95;;;;;;;;;;7385913;19;20002;-80
2023/03/06 05:33:39;;;;;;;9.65;4.68;;;;;;;;;;7388267;19;19998;-81
2023/03/06 05:36:06;;;;;;;9.77;5.32;;;;;;;;;;7393304;19;19999;-82
2023/03/06 05:38:32;;;;;;;11.25;4.97;;;;;;;;;;7388820;19;20010;-81
2023/03/06 05:40:57;;;;;;;9.80;4.93;;;;;;;;;;7389043;19;20002;-82
2023/03/06 05:43:22;;;;;;;8.75;4.63;;;;;;;;;;7387208;19;20093;-81
2023/03/06 05:45:49;;;;;;;12.18;5.40;;;;;;;;;;7392972;19;20007;-79
2023/03/06 05:48:14;;;;;;;12.32;5.20;;;;;;;;;;7400053;19;20023;-80
2023/03/06 05:50:39;;;;;;;12.77;5.38;;;;;;;;;;7397203;19;19995;-78
2023/03/06 05:53:05;;;;;;;11.75;5.43;;;;;;;;;;7396844;19;20002;-80
2023/03/06 05:55:30;;;;;;;12.35;5.30;;;;;;;;;;7401173;19;19998;-80
2023/03/06 05:57:56;;;;;;;9.90;4.95;;;;;;;;;;7401855;19;19999;-80
2023/03/06 06:00:22;;;;;;;12.13;5.75;;;;;;;;;;7399192;19;19999;-78
2023/03/06 06:02:47;;;;;;;9.13;4.70;;;;;;;;;;7396262;19;20512;-78
2023/03/06 06:05:13;;;;;;;11.48;5.47;;;;;;;;;;7393023;19;20040;-80
2023/03/06 06:07:39;;;;;;;12.05;5.60;;;;;;;;;;7392147;19;20013;-79
2023/03/06 06:10:05;;;;;;;10.27;5.20;;;;;;;;;;7392238;19;20010;-80
2023/03/06 06:12:31;;;;;;;13.55;5.50;;;;;;;;;;7390307;19;20131;-82
2023/03/06 06:14:57;;;;;;;12.70;5.57;;;;;;;;;;7388550;19;20006;-75
2023/03/06 06:17:22;;;;;;;10.77;5.10;;;;;;;;;;7388704;19;20015;-75
2023/03/06 06:19:47;;;;;;;9.70;5.18;;;;;;;;;;7393373;19;20003;-78
2023/03/06 06:22:13;;;;;;;10.45;5.38;;;;;;;;;;7392878;19;20022;-82
2023/03/06 06:24:38;;;;;;;11.07;5.68;;;;;;;;;;7395714;19;20009;-81
2023/03/06 06:27:04;;;;;;;13.85;5.97;;;;;;;;;;7397006;19;19999;-81
2023/03/06 06:29:30;;;;;;;13.18;6.13;;;;;;;;;;7393291;19;20134;-82
2023/03/06 06:31:56;;;;;;;14.43;5.97;;;;;;;;;;7391914;19;20070;-81
2023/03/06 06:34:22;;;;;;;13.68;6.05;;;;;;;;;;7391058;19;20015;-81
2023/03/06 06:36:48;;;;;;;10.65;5.95;;;;;;;;;;7393637;19;20349;-81
2023/03/06 06:39:16;;;;;;;13.23;6.03;;;;;;;;;;7395971;19;20006;-81
2023/03/06 06:41:41;;;;;;;10.98;5.43;;;;;;;;;;7390281;19;20010;-83
2023/03/06 06:44:11;;;;;;;13.23;5.85;;;;;;;;;;7391288;19;20040;-83
2023/03/06 06:46:36;;;;;;;11.13;5.07;;;;;;;;;;7394416;19;20009;-83
2023/03/06 06:49:02;;;;;;;11.35;5.97;;;;;;;;;;7392339;19;20002;-82
2023/03/06 06:51:34;;;;;;;13.57;6.40;;;;;;;;;;7390169;19;20078;-81
2023/03/06 06:54:00;;;;;;;11.80;5.45;;;;;;;;;;7392411;19;20019;-81
2023/03/06 06:56:25;;;;;;;11.43;5.80;;;;;;;;;;7391688;19;20007;-81
2023/03/06 06:58:55;;;;;;;12.18;5.30;;;;;;;;;;7395987;19;20025;-81
2023/03/06 07:01:21;;;;;;;12.40;6.15;;;;;;;;;;7390417;19;20002;-81
2023/03/06 07:03:47;;;;;;;13.82;6.22;;;;;;;;;;7396170;19;20002;-81
2023/03/06 07:06:12;;;;;;;11.23;5.68;;;;;;;;;;7335352;19;20066;-82
2023/03/06 07:08:37;;;;;;;10.55;5.85;;;;;;;;;;7393815;19;20429;-81
2023/03/06 07:11:09;;;;;;;13.70;6.35;;;;;;;;;;7395270;19;19995;-80
2023/03/06 07:13:35;;;;;;;14.10;6.30;;;;;;;;;;7402197;19;20002;-79
2023/03/06 07:16:00;;;;;;;13.68;5.65;;;;;;;;;;7419312;19;20006;-79
2023/03/06 07:18:26;;;;;;;11.63;6.03;;;;;;;;;;7419148;19;20009;-81
2023/03/06 07:20:55;;;;;;;12.18;6.07;;;;;;;;;;7419454;19;20014;-79
2023/03/06 07:23:20;;;;;;;12.48;6.35;;;;;;;;;;7403999;19;20079;-82
2023/03/06 07:25:45;;;;;;;13.00;5.97;;;;;;;;;;7389032;19;19994;-82
2023/03/06 07:28:11;;;;;;;11.38;5.80;;;;;;;;;;7393104;19;20006;-81
2023/03/06 07:30:38;;;;;;;11.73;6.25;;;;;;;;;;7391633;19;20023;-82
2023/03/06 07:33:04;;;;;;;14.05;6.78;;;;;;;;;;7399880;19;20001;-84
2023/03/06 07:35:29;;;;;;;15.20;6.72;;;;;;;;;;7392206;19;20003;-82
2023/03/06 07:37:54;;;;;;;14.25;7.32;;;;;;;;;;7391973;19;20020;-82
2023/03/06 07:40:20;;;;;;;12.45;6.32;;;;;;;;;;7389975;19;20023;-80
2023/03/06 07:42:46;;;;;;;13.80;6.18;;;;;;;;;;7391407;19;20457;-81
2023/03/06 07:45:13;;;;;;;15.15;6.40;;;;;;;;;;7390718;19;20001;-81
2023/03/06 07:47:39;;;;;;;12.57;6.20;;;;;;;;;;7390946;19;19998;-80
2023/03/06 07:50:06;;;;;;;13.85;6.90;;;;;;;;;;7392073;19;20038;-81
2023/03/06 07:52:32;;;;;;;13.10;6.57;;;;;;;;;;7390174;19;20018;-80
2023/03/06 07:55:00;;;;;;;16.30;6.75;;;;;;;;;;7389241;19;20022;-82
2023/03/06 07:57:26;;;;;;;10.93;5.57;;;;;;;;;;7393220;19;20472;-82
2023/03/06 07:59:51;;;;;;;12.00;6.07;;;;;;;;;;7389890;19;20009;-82
2023/03/06 08:02:16;;;;;;;12.98;6.85;;;;;;;;;;7388491;19;20019;-82
2023/03/06 08:04:42;;;;;;;14.35;7.50;;;;;;;;;;7390043;19;20002;-82
2023/03/06 08:07:08;;;;;;;13.32;6.70;;;;;;;;;;7392340;19;20018;-83
2023/03/06 08:09:34;;;;;;;12.88;6.82;;;;;;;;;;7389717;19;20003;-81
2023/03/06 08:11:59;;;;;;;16.25;7.22;;;;;;;;;;7390352;19;20036;-81
2023/03/06 08:14:25;;;;;;;14.35;6.80;;;;;;;;;;7389865;19;20387;-83
2023/03/06 08:16:50;;;;;;;14.50;7.45;;;;;;;;;;7391102;19;20006;-81
2023/03/06 08:19:16;;;;;;;12.32;6.85;;;;;;;;;;7394834;19;20313;-80
2023/03/06 08:21:41;;;;;;;16.83;6.78;;;;;;;;;;7396169;19;19998;-82
2023/03/06 08:24:07;;;;;;;13.15;6.68;;;;;;;;;;7403323;19;19999;-82
2023/03/06 08:26:33;;;;;;;11.93;6.60;;;;;;;;;;7404800;19;20477;-83
2023/03/06 08:28:59;;;;;;;11.93;6.53;;;;;;;;;;7391693;19;20026;-82
2023/03/06 08:31:36;;;;;;;14.20;7.57;;;;;;;;;;7390950;19;20491;-83
2023/03/06 08:34:05;;;;;;;14.68;7.60;;;;;;;;;;7388204;19;20010;-84
2023/03/06 08:36:31;;;;;;;13.00;7.10;;;;;;;;;;7392674;19;20472;-81
2023/03/06 08:38:57;;;;;;;15.13;7.43;;;;;;;;;;7394240;19;20031;-82
2023/03/06 08:41:23;;;;;;;12.98;7.45;;;;;;;;;;7388603;19;20007;-82
2023/03/06 08:43:48;;;;;;;13.05;6.80;;;;;;;;;;7389965;19;20019;-84
2023/03/06 08:46:14;;;;;;;15.23;6.97;;;;;;;;;;7390971;19;19999;-83
2023/03/06 08:48:39;;;;;;;18.65;7.90;;;;;;;;;;7387595;19;20002;-82
2023/03/06 08:51:07;;;;;;;17.33;8.10;;;;;;;;;;7388879;19;20351;-83
2023/03/06 08:53:32;;;;;;;13.93;7.45;;;;;;;;;;7385007;19;20360;-82
2023/03/06 08:55:57;;;;;;;15.35;7.70;;;;;;;;;;7389862;19;20015;-82
2023/03/06 08:58:23;;;;;;;17.30;7.55;;;;;;;;;;7386368;19;20024;-82
2023/03/06 09:00:50;;;;;;;15.90;7.15;;;;;;;;;;7386393;19;20006;-82
2023/03/06 09:03:16;;;;;;;16.10;8.27;;;;;;;;;;7390246;19;19994;-82
2023/03/06 09:05:41;;;;;;;15.45;8.25;;;;;;;;;;7393215;19;20022;-81
2023/03/06 09:08:07;;;;;;;15.63;7.90;;;;;;;;;;7390234;19;19999;-82
2023/03/06 09:10:32;;;;;;;15.98;7.78;;;;;;;;;;7386646;19;20002;-83
2023/03/06 09:12:57;;;;;;;15.50;7.72;;;;;;;;;;7388324;19;20007;-82
2023/03/06 09:15:23;;;;;;;14.23;7.53;;;;;;;;;;7388926;19;20019;-82
2023/03/06 09:17:50;;;;;;;14.43;7.80;;;;;;;;;;7389573;19;19995;-83
2023/03/06 09:20:17;;;;;;;14.35;7.93;;;;;;;;;;7386403;19;20006;-81
2023/03/06 09:22:44;;;;;;;13.52;7.22;;;;;;;;;;7387178;19;20010;-83
2023/03/06 09:25:12;;;;;;;16.08;8.05;;;;;;;;;;7389991;19;20341;-81
2023/03/06 09:27:37;;;;;;;15.32;7.45;;;;;;;;;;7388514;19;20007;-82
2023/03/06 09:30:03;;;;;;;16.45;7.60;;;;;;;;;;7389385;19;19999;-82
2023/03/06 09:32:28;;;;;;;14.35;7.70;;;;;;;;;;7386467;19;20002;-83
2023/03/06 09:34:54;;;;;;;12.85;6.93;;;;;;;;;;7388233;19;20019;-81
2023/03/06 09:37:19;;;;;;;14.43;7.57;;;;;;;;;;7390018;19;20009;-81
2023/03/06 09:39:44;;;;;;;14.25;7.15;;;;;;;;;;7386333;19;20006;-81
2023/03/06 09:42:19;;;;;;;13.07;6.45;;;;;;;;;;7387030;19;20006;-82
2023/03/06 09:44:51;;;;;;;16.02;6.68;;;;;;;;;;7384024;19;20030;-82
2023/03/06 09:48:10;;;;;;;12.82;5.93;;;;;;;;;;7389588;19;20006;-84
2023/03/06 09:51:00;;;;;;;12.30;6.80;;;;;;;;;;7382170;19;19999;-83
2023/03/06 09:53:40;;;;;;;11.65;6.20;;;;;;;;;;7384176;19;19998;-82
2023/03/06 09:56:15;;;;;;;10.98;5.90;;;;;;;;;;7389182;19;20020;-82
2023/03/06 09:58:54;;;;;;;17.65;5.80;;;;;;;;;;7386213;19;20010;-82
2023/03/06 10:01:24;;;;;;;12.55;6.43;;;;;;;;;;7386762;19;20107;-82
2023/03/06 10:04:27;;;;;;;11.45;5.85;;;;;;;;;;7383340;19;19990;-82
2023/03/06 10:06:58;;;;;;;14.70;5.85;;;;;;;;;;7386445;19;20002;-84
2023/03/06 10:09:46;;;;;;;;;;;;;;;;;;7389187;19;20005;-80
2023/03/06 10:12:22;;;;;;;14.63;6.45;;;;;;;;;;7386722;19;19920;-83
2023/03/06 10:15:12;;;;;;;11.27;5.95;;;;;;;;;;7394210;19;20037;-82
2023/03/06 10:17:40;;;;;;;13.70;7.13;;;;;;;;;;7392441;19;20003;-83
2023/03/06 10:20:52;;;;;;;13.27;6.53;;;;;;;;;;7391644;19;20453;-84
2023/03/06 10:23:31;;;;;;;11.93;6.20;;;;;;;;;;7391207;19;20069;-81
2023/03/06 10:26:00;;;;;;;12.50;6.60;;;;;;;;;;7392783;19;20003;-84
2023/03/06 10:28:52;;;;;;;13.02;6.05;;;;;;;;;;7393319;19;20003;-83
2023/03/06 10:31:23;;;;;;;11.63;6.40;;;;;;;;;;7388636;19;20385;-82
2023/03/06 10:33:54;;;;;;;10.55;6.45;;;;;;;;;;7391915;19;20013;-83
2023/03/06 10:36:27;;;;;;;12.25;6.13;;;;;;;;;;7393791;19;20007;-82
2023/03/06 10:38:54;;;;;;;11.70;6.13;;;;;;;;;;7393833;19;19999;-83
2023/03/06 10:41:28;;;;;;;11.90;6.25;;;;;;;;;;7392979;19;20382;-82
2023/03/06 10:43:59;;;;;;;11.00;6.35;;;;;;;;;;7390772;19;20035;-83
2023/03/06 10:46:28;;;;;;;12.88;6.70;;;;;;;;;;7390084;19;20045;-84
2023/03/06 10:48:58;;;;;;;10.80;6.40;;;;;;;;;;7394752;19;20029;-84
2023/03/06 10:51:26;;;;;;;10.38;6.30;;;;;;;;;;7392010;19;20002;-83
2023/03/06 10:54:00;;;;;;;11.50;6.28;;;;;;;;;;7391321;19;20062;-83
2023/03/06 10:56:31;;;;;;;10.93;6.18;;;;;;;;;;7390614;19;20434;-84
2023/03/06 10:59:03;;;;;;;;;;;;;;;;;;7392380;19;20002;-83
2023/03/06 11:01:29;;;;;;;;;;;;;;;;;;7392911;19;20352;-83
2023/03/06 11:04:14;;;;;;;11.27;5.47;;;;;;;;;;7390114;19;20341;-82
2023/03/06 11:06:40;;;;;;;12.48;6.13;;;;;;;;;;7393770;19;20103;-82
2023/03/06 11:09:23;;;;;;;12.30;6.57;;;;;;;;;;7393520;19;20531;-82
2023/03/06 11:12:07;;;;;;;11.25;6.80;;;;;;;;;;7389658;19;20023;-82
2023/03/06 11:14:32;;;;;;;14.15;6.72;;;;;;;;;;7390395;19;20006;-82
2023/03/06 11:16:58;;;;;;;12.45;6.15;;;;;;;;;;7393950;19;20473;-82
2023/03/06 11:19:26;;;;;;;12.90;6.20;;;;;;;;;;7388503;19;20496;-83
2023/03/06 11:22:04;;;;;;;11.02;6.10;;;;;;;;;;7384548;19;20010;-84
2023/03/06 11:24:41;;;;;;;13.23;6.55;;;;;;;;;;7386585;19;20042;-83
2023/03/06 11:27:15;;;;;;;16.27;7.68;;;;;;;;;;7389782;19;20010;-83
2023/03/06 11:29:49;;;;;;;15.88;8.40;;;;;;;;;;7386243;19;20007;-83
2023/03/06 11:32:30;;;;;;;14.85;7.80;;;;;;;;;;7385101;19;20002;-82
2023/03/06 11:34:55;;;;;;;;;;;;;;;;;;7392343;19;20074;-83
2023/03/06 11:37:23;;;;;;;14.00;7.17;;;;;;;;;;7393566;19;19922;-82
2023/03/06 11:39:58;;;;;;;21.45;8.52;;;;;;;;;;7390748;19;20436;-82
2023/03/06 11:42:36;;;;;;;15.55;8.75;;;;;;;;;;7390128;19;19999;-81
2023/03/06 11:45:05;;;;;;;16.02;8.52;;;;;;;;;;7395094;19;19998;-80
2023/03/06 11:47:35;;;;;;;15.20;8.02;;;;;;;;;;7393935;19;20005;-85
2023/03/06 11:50:17;;;;;;;15.05;8.20;;;;;;;;;;7386103;19;20417;-83
2023/03/06 11:52:50;;;;;;;16.23;8.75;;;;;;;;;;7392435;19;20464;-81
2023/03/06 11:55:36;;;;;;;15.15;7.60;;;;;;;;;;7394392;19;20066;-83
2023/03/06 11:58:39;;;;;;;13.23;7.40;;;;;;;;;;7389972;19;20476;-83
2023/03/06 12:01:27;;;;;;;12.63;7.95;;;;;;;;;;7390559;19;20552;-82
2023/03/06 12:04:02;;;;;;;13.13;7.90;;;;;;;;;;7389013;19;20018;-81
2023/03/06 12:06:37;;;;;;;14.75;8.05;;;;;;;;;;7390322;19;20011;-82
2023/03/06 12:09:24;;;;;;;12.05;6.60;;;;;;;;;;7391601;19;20006;-82
2023/03/06 12:12:03;;;;;;;13.63;7.60;;;;;;;;;;7386502;19;20468;-81
2023/03/06 12:14:40;;;;;;;13.98;7.60;;;;;;;;;;7390046;19;20041;-81
2023/03/06 12:17:45;;;;;;;14.43;7.25;;;;;;;;;;7392724;19;20463;-81
2023/03/06 12:20:25;;;;;;;14.30;8.07;;;;;;;;;;7388517;19;20006;-81
2023/03/06 12:22:52;;;;;;;14.65;8.15;;;;;;;;;;7390057;19;20949;-81
2023/03/06 12:25:26;;;;;;;16.02;7.32;;;;;;;;;;7389935;19;20456;-80
2023/03/06 12:28:29;;;;;;;14.45;7.30;;;;;;;;;;7388459;19;19999;-80
2023/03/06 12:31:06;;;;;;;13.18;7.30;;;;;;;;;;7388298;19;20002;-80
2023/03/06 12:33:39;;;;;;;16.70;7.82;;;;;;;;;;7385025;19;20033;-82
2023/03/06 12:36:23;;;;;;;15.18;7.65;;;;;;;;;;7385359;19;20495;-84
2023/03/06 12:39:38;;;;;;;12.05;6.85;;;;;;;;;;7390065;19;20491;-82
2023/03/06 12:42:37;;;;;;;13.85;6.57;;;;;;;;;;7382616;19;20144;-80
2023/03/06 12:45:02;;;;;;;11.70;6.38;;;;;;;;;;7390749;19;20003;-81
2023/03/06 12:47:30;;;;;;;13.32;6.93;;;;;;;;;;7388108;19;20287;-81
2023/03/06 12:50:00;;;;;;;12.07;6.78;;;;;;;;;;7386861;19;20015;-81
2023/03/06 12:52:36;;;;;;;13.40;7.03;;;;;;;;;;7378379;19;20035;-78
2023/03/06 12:55:05;;;;;;;14.73;8.18;;;;;;;;;;7382523;19;20539;-78
2023/03/06 12:57:31;;;;;;;13.10;7.47;;;;;;;;;;7385663;19;20010;-79
2023/03/06 12:59:56;;;;;;;16.02;8.25;;;;;;;;;;7387595;19;20005;-80
2023/03/06 13:02:50;;;;;;;12.93;7.70;;;;;;;;;;7383760;19;20002;-80
2023/03/06 13:05:30;;;;;;;15.05;8.07;;;;;;;;;;7388364;19;20006;-78
2023/03/06 13:08:27;;;;;;;13.43;7.95;;;;;;;;;;7387813;19;20006;-77
2023/03/06 13:11:20;;;;;;;13.57;7.53;;;;;;;;;;7382318;19;20277;-78
2023/03/06 13:13:47;;;;;;;12.85;7.05;;;;;;;;;;7387749;19;20037;-78
2023/03/06 13:16:31;;;;;;;14.40;7.97;;;;;;;;;;7386414;19;20009;-79
2023/03/06 13:19:00;;;;;;;13.50;7.13;;;;;;;;;;7392720;19;20010;-78
2023/03/06 13:21:40;;;;;;;14.68;7.25;;;;;;;;;;7408631;19;20009;-79
2023/03/06 13:24:21;;;;;;;17.27;7.43;;;;;;;;;;7411310;19;20003;-80
2023/03/06 13:26:48;;;;;;;15.73;8.10;;;;;;;;;;7414115;19;20563;-79
2023/03/06 13:29:47;;;;;;;13.48;6.97;;;;;;;;;;7404020;19;20276;-79
2023/03/06 13:32:13;;;;;;;15.48;7.20;;;;;;;;;;7397029;19;20103;-79
2023/03/06 13:34:47;;;;;;;15.27;8.20;;;;;;;;;;7393852;19;20027;-80
2023/03/06 13:37:12;;;;;;;14.38;7.63;;;;;;;;;;7394130;19;20326;-80
2023/03/06 13:39:59;;;;;;;13.23;7.35;;;;;;;;;;7385317;19;20070;-77
2023/03/06 13:42:38;;;;;;;14.88;6.57;;;;;;;;;;7382969;19;20142;-77
2023/03/06 13:45:13;;;;;;;13.60;6.63;;;;;;;;;;7388277;19;20013;-78
2023/03/06 13:47:49;;;;;;;16.13;7.43;;;;;;;;;;7397419;19;20006;-77
2023/03/06 13:50:36;;;;;;;12.55;6.82;;;;;;;;;;7395958;19;20002;-77
2023/03/06 13:53:34;;;;;;;12.85;6.55;;;;;;;;;;7395032;19;20006;-79
2023/03/06 13:56:21;;;;;;;13.50;6.78;;;;;;;;;;7394449;19;20003;-73
2023/03/06 13:59:19;;;;;;;15.30;7.28;;;;;;;;;;7394707;19;20451;-76
2023/03/06 14:01:45;;;;;;;13.95;6.55;;;;;;;;;;7390026;19;19998;-76
2023/03/06 14:04:34;;;;;;;10.50;6.10;;;;;;;;;;7390558;19;20002;-79
2023/03/06 14:07:01;;;;;;;11.57;6.47;;;;;;;;;;7394645;19;20006;-76
2023/03/06 14:09:43;;;;;;;12.32;6.20;;;;;;;;;;7395512;19;19994;-75
2023/03/06 14:12:19;;;;;;;13.88;6.57;;;;;;;;;;7390524;19;20070;-82
2023/03/06 14:14:53;;;;;;;12.82;6.38;;;;;;;;;;7393472;19;20002;-80
2023/03/06 14:17:31;;;;;;;11.27;6.05;;;;;;;;;;7398142;19;20030;-79
2023/03/06 14:20:13;;;;;;;11.45;6.10;;;;;;;;;;7395062;19;20039;-75
2023/03/06 14:22:39;;;;;;;9.27;5.38;;;;;;;;;;7392422;19;20038;-75
2023/03/06 14:25:14;;;;;;;10.82;5.75;;;;;;;;;;7392738;19;20093;-76
2023/03/06 14:27:42;;;;;;;11.43;5.68;;;;;;;;;;7393949;19;20013;-76
2023/03/06 14:30:15;;;;;;;10.73;5.13;;;;;;;;;;7390032;19;20102;-75
2023/03/06 14:32:41;;;;;;;13.45;6.03;;;;;;;;;;7392652;19;20007;-78
2023/03/06 14:35:19;;;;;;;13.77;5.43;;;;;;;;;;7390316;19;19998;-73
2023/03/06 14:37:48;;;;;;;12.05;5.90;;;;;;;;;;7393341;19;20002;-72
2023/03/06 14:40:19;;;;;;;17.48;5.78;;;;;;;;;;7393461;19;20382;-73
2023/03/06 14:42:45;;;;;;;12.65;5.18;;;;;;;;;;7388802;19;20117;-72
2023/03/06 14:45:16;;;;;;;9.73;4.95;;;;;;;;;;7392898;19;20030;-70
2023/03/06 14:47:43;;;;;;;13.75;5.68;;;;;;;;;;7391746;19;19995;-70
2023/03/06 14:50:17;;;;;;;12.30;5.85;;;;;;;;;;7391658;19;19999;-68
2023/03/06 14:52:42;;;;;;;10.23;4.97;;;;;;;;;;7390531;19;20002;-76